sensor_id;sensor_type;location;lat;lon;timestamp;P1;durP1;ratioP1;P2;durP2;ratioP2
30533;SDS011;17318;52.390;9.754;2023-05-10T00:02:06;3.38;;;2.38;;
30533;SDS011;17318;52.390;9.754;2023-05-10T00:04:32;3.13;;;2.08;;
30533;SDS011;17318;52.390;9.754;2023-05-10T00:06:57;8.32;;;2.17;;
30533;SDS011;17318;52.390;9.754;2023-05-10T00:09:23;7.93;;;2.40;;
30533;SDS011;17318;52.390;9.754;2023-05-10T00:11:49;6.28;;;2.00;;
30533;SDS011;17318;52.390;9.754;2023-05-10T00:14:14;4.07;;;2.22;;
30533;SDS011;17318;52.390;9.754;2023-05-10T00:16:40;4.80;;;2.42;;
30533;SDS011;17318;52.390;9.754;2023-05-10T00:19:06;5.00;;;2.25;;
30533;SDS011;17318;52.390;9.754;2023-05-10T00:21:32;3.10;;;2.38;;
30533;SDS011;17318;52.390;9.754;2023-05-10T00:23:58;5.03;;;2.60;;
30533;SDS011;17318;52.390;9.754;2023-05-10T00:26:24;5.70;;;2.13;;
30533;SDS011;17318;52.390;9.754;2023-05-10T00:28:50;12.05;;;3.13;;
30533;SDS011;17318;52.390;9.754;2023-05-10T00:31:16;7.45;;;2.53;;
30533;SDS011;17318;52.390;9.754;2023-05-10T00:33:42;6.57;;;2.50;;
30533;SDS011;17318;52.390;9.754;2023-05-10T00:36:07;5.82;;;2.50;;
30533;SDS011;17318;52.390;9.754;2023-05-10T00:38:35;7.90;;;2.70;;
30533;SDS011;17318;52.390;9.754;2023-05-10T00:41:01;5.50;;;2.15;;
30533;SDS011;17318;52.390;9.754;2023-05-10T00:43:27;6.55;;;2.88;;
30533;SDS011;17318;52.390;9.754;2023-05-10T00:45:53;4.90;;;2.58;;
30533;SDS011;17318;52.390;9.754;2023-05-10T00:48:19;5.60;;;2.28;;
30533;SDS011;17318;52.390;9.754;2023-05-10T00:50:45;9.38;;;2.63;;
30533;SDS011;17318;52.390;9.754;2023-05-10T00:53:10;5.57;;;2.42;;
30533;SDS011;17318;52.390;9.754;2023-05-10T00:55:36;4.53;;;2.40;;
30533;SDS011;17318;52.390;9.754;2023-05-10T00:58:02;6.78;;;2.50;;
30533;SDS011;17318;52.390;9.754;2023-05-10T01:00:29;8.10;;;3.33;;
30533;SDS011;17318;52.390;9.754;2023-05-10T01:02:55;6.78;;;2.72;;
30533;SDS011;17318;52.390;9.754;2023-05-10T01:05:20;4.55;;;2.70;;
30533;SDS011;17318;52.390;9.754;2023-05-10T01:07:46;10.00;;;2.25;;
30533;SDS011;17318;52.390;9.754;2023-05-10T01:10:13;4.32;;;2.55;;
30533;SDS011;17318;52.390;9.754;2023-05-10T01:12:40;6.03;;;2.20;;
30533;SDS011;17318;52.390;9.754;2023-05-10T01:15:07;7.15;;;2.22;;
30533;SDS011;17318;52.390;9.754;2023-05-10T01:17:35;7.97;;;2.45;;
30533;SDS011;17318;52.390;9.754;2023-05-10T01:20:04;5.07;;;2.42;;
30533;SDS011;17318;52.390;9.754;2023-05-10T01:33:46;7.30;;;2.92;;
30533;SDS011;17318;52.390;9.754;2023-05-10T01:41:57;4.68;;;2.72;;
30533;SDS011;17318;52.390;9.754;2023-05-10T01:47:15;4.00;;;2.35;;
30533;SDS011;17318;52.390;9.754;2023-05-10T01:49:49;5.95;;;2.75;;
30533;SDS011;17318;52.390;9.754;2023-05-10T01:52:18;5.20;;;2.80;;
30533;SDS011;17318;52.390;9.754;2023-05-10T01:54:59;6.43;;;3.08;;
30533;SDS011;17318;52.390;9.754;2023-05-10T01:57:34;5.65;;;2.60;;
30533;SDS011;17318;52.390;9.754;2023-05-10T02:00:03;7.35;;;2.60;;
30533;SDS011;17318;52.390;9.754;2023-05-10T02:02:33;6.63;;;3.00;;
30533;SDS011;17318;52.390;9.754;2023-05-10T02:05:05;5.35;;;2.63;;
30533;SDS011;17318;52.390;9.754;2023-05-10T02:07:33;6.95;;;3.20;;
30533;SDS011;17318;52.390;9.754;2023-05-10T02:10:04;4.18;;;2.70;;
30533;SDS011;17318;52.390;9.754;2023-05-10T02:12:35;5.97;;;2.92;;
30533;SDS011;17318;52.390;9.754;2023-05-10T02:15:04;10.55;;;3.22;;
30533;SDS011;17318;52.390;9.754;2023-05-10T02:17:32;10.57;;;3.15;;
30533;SDS011;17318;52.390;9.754;2023-05-10T02:19:59;5.38;;;3.20;;
30533;SDS011;17318;52.390;9.754;2023-05-10T02:22:27;8.73;;;3.00;;
30533;SDS011;17318;52.390;9.754;2023-05-10T02:24:57;5.82;;;3.28;;
30533;SDS011;17318;52.390;9.754;2023-05-10T02:27:23;10.25;;;3.13;;
30533;SDS011;17318;52.390;9.754;2023-05-10T02:29:51;6.00;;;3.50;;
30533;SDS011;17318;52.390;9.754;2023-05-10T02:32:17;6.85;;;3.33;;
30533;SDS011;17318;52.390;9.754;2023-05-10T02:34:44;5.63;;;3.15;;
30533;SDS011;17318;52.390;9.754;2023-05-10T02:37:14;8.48;;;3.65;;
30533;SDS011;17318;52.390;9.754;2023-05-10T02:39:43;5.50;;;3.35;;
30533;SDS011;17318;52.390;9.754;2023-05-10T02:42:14;5.10;;;3.07;;
30533;SDS011;17318;52.390;9.754;2023-05-10T02:44:43;6.47;;;3.28;;
30533;SDS011;17318;52.390;9.754;2023-05-10T02:47:12;10.63;;;3.83;;
30533;SDS011;17318;52.390;9.754;2023-05-10T02:49:38;11.00;;;3.28;;
30533;SDS011;17318;52.390;9.754;2023-05-10T02:52:05;5.13;;;3.28;;
30533;SDS011;17318;52.390;9.754;2023-05-10T02:54:33;6.55;;;4.13;;
30533;SDS011;17318;52.390;9.754;2023-05-10T02:57:11;9.77;;;3.53;;
30533;SDS011;17318;52.390;9.754;2023-05-10T02:59:44;6.10;;;3.92;;
30533;SDS011;17318;52.390;9.754;2023-05-10T03:02:11;7.18;;;3.97;;
30533;SDS011;17318;52.390;9.754;2023-05-10T03:04:38;11.82;;;3.90;;
30533;SDS011;17318;52.390;9.754;2023-05-10T03:07:03;7.60;;;4.07;;
30533;SDS011;17318;52.390;9.754;2023-05-10T03:09:30;9.18;;;3.63;;
30533;SDS011;17318;52.390;9.754;2023-05-10T03:12:00;6.53;;;3.60;;
30533;SDS011;17318;52.390;9.754;2023-05-10T03:17:31;8.35;;;3.90;;
30533;SDS011;17318;52.390;9.754;2023-05-10T03:20:11;8.57;;;4.20;;
30533;SDS011;17318;52.390;9.754;2023-05-10T03:22:55;10.07;;;3.72;;
30533;SDS011;17318;52.390;9.754;2023-05-10T03:25:27;9.32;;;4.32;;
30533;SDS011;17318;52.390;9.754;2023-05-10T03:27:54;6.38;;;3.78;;
30533;SDS011;17318;52.390;9.754;2023-05-10T03:30:22;9.80;;;4.07;;
30533;SDS011;17318;52.390;9.754;2023-05-10T03:32:49;6.10;;;3.67;;
30533;SDS011;17318;52.390;9.754;2023-05-10T03:35:15;9.00;;;3.97;;
30533;SDS011;17318;52.390;9.754;2023-05-10T03:37:40;6.53;;;3.40;;
30533;SDS011;17318;52.390;9.754;2023-05-10T03:40:06;8.65;;;4.50;;
30533;SDS011;17318;52.390;9.754;2023-05-10T03:42:33;6.85;;;4.68;;
30533;SDS011;17318;52.390;9.754;2023-05-10T03:44:59;9.27;;;4.40;;
30533;SDS011;17318;52.390;9.754;2023-05-10T03:47:25;7.65;;;4.35;;
30533;SDS011;17318;52.390;9.754;2023-05-10T03:49:50;11.10;;;4.15;;
30533;SDS011;17318;52.390;9.754;2023-05-10T03:52:16;9.30;;;4.50;;
30533;SDS011;17318;52.390;9.754;2023-05-10T03:54:43;12.48;;;4.70;;
30533;SDS011;17318;52.390;9.754;2023-05-10T03:57:08;6.97;;;4.25;;
30533;SDS011;17318;52.390;9.754;2023-05-10T03:59:34;9.65;;;4.78;;
30533;SDS011;17318;52.390;9.754;2023-05-10T04:02:00;8.77;;;4.63;;
30533;SDS011;17318;52.390;9.754;2023-05-10T04:04:26;8.13;;;4.50;;
30533;SDS011;17318;52.390;9.754;2023-05-10T04:06:51;7.22;;;4.95;;
30533;SDS011;17318;52.390;9.754;2023-05-10T04:09:17;9.65;;;5.32;;
30533;SDS011;17318;52.390;9.754;2023-05-10T04:11:45;9.65;;;5.80;;
30533;SDS011;17318;52.390;9.754;2023-05-10T04:14:11;7.40;;;4.60;;
30533;SDS011;17318;52.390;9.754;2023-05-10T04:16:37;10.23;;;4.90;;
30533;SDS011;17318;52.390;9.754;2023-05-10T04:19:02;13.20;;;5.15;;
30533;SDS011;17318;52.390;9.754;2023-05-10T04:21:28;11.73;;;5.75;;
30533;SDS011;17318;52.390;9.754;2023-05-10T04:23:54;7.53;;;4.93;;
30533;SDS011;17318;52.390;9.754;2023-05-10T04:26:20;11.65;;;5.57;;
30533;SDS011;17318;52.390;9.754;2023-05-10T04:28:47;11.07;;;5.15;;
30533;SDS011;17318;52.390;9.754;2023-05-10T04:31:12;9.07;;;5.05;;
30533;SDS011;17318;52.390;9.754;2023-05-10T04:33:38;9.70;;;4.85;;
30533;SDS011;17318;52.390;9.754;2023-05-10T04:36:04;11.30;;;5.35;;
30533;SDS011;17318;52.390;9.754;2023-05-10T04:38:30;7.63;;;5.22;;
30533;SDS011;17318;52.390;9.754;2023-05-10T04:41:05;10.52;;;5.57;;
30533;SDS011;17318;52.390;9.754;2023-05-10T04:43:32;8.07;;;5.20;;
30533;SDS011;17318;52.390;9.754;2023-05-10T04:45:58;14.38;;;5.15;;
30533;SDS011;17318;52.390;9.754;2023-05-10T04:48:24;9.90;;;5.22;;
30533;SDS011;17318;52.390;9.754;2023-05-10T04:50:49;10.13;;;5.90;;
30533;SDS011;17318;52.390;9.754;2023-05-10T04:53:15;10.27;;;5.75;;
30533;SDS011;17318;52.390;9.754;2023-05-10T04:55:41;8.48;;;5.50;;
30533;SDS011;17318;52.390;9.754;2023-05-10T04:58:07;7.50;;;5.10;;
30533;SDS011;17318;52.390;9.754;2023-05-10T05:00:33;9.10;;;5.13;;
30533;SDS011;17318;52.390;9.754;2023-05-10T05:02:59;8.70;;;4.90;;
30533;SDS011;17318;52.390;9.754;2023-05-10T05:05:24;11.02;;;5.70;;
30533;SDS011;17318;52.390;9.754;2023-05-10T05:07:50;12.23;;;5.43;;
30533;SDS011;17318;52.390;9.754;2023-05-10T05:10:16;7.53;;;5.43;;
30533;SDS011;17318;52.390;9.754;2023-05-10T05:12:42;10.90;;;6.15;;
30533;SDS011;17318;52.390;9.754;2023-05-10T05:15:07;11.52;;;5.75;;
30533;SDS011;17318;52.390;9.754;2023-05-10T05:17:34;8.95;;;5.47;;
30533;SDS011;17318;52.390;9.754;2023-05-10T05:20:00;9.75;;;5.82;;
30533;SDS011;17318;52.390;9.754;2023-05-10T05:22:26;8.63;;;5.65;;
30533;SDS011;17318;52.390;9.754;2023-05-10T05:24:56;10.75;;;5.32;;
30533;SDS011;17318;52.390;9.754;2023-05-10T05:27:23;9.07;;;5.75;;
30533;SDS011;17318;52.390;9.754;2023-05-10T05:29:52;8.02;;;5.43;;
30533;SDS011;17318;52.390;9.754;2023-05-10T05:32:19;11.02;;;5.80;;
30533;SDS011;17318;52.390;9.754;2023-05-10T05:34:45;11.02;;;5.93;;
30533;SDS011;17318;52.390;9.754;2023-05-10T05:37:18;11.20;;;6.18;;
30533;SDS011;17318;52.390;9.754;2023-05-10T05:39:45;10.20;;;5.95;;
30533;SDS011;17318;52.390;9.754;2023-05-10T05:42:10;13.38;;;6.50;;
30533;SDS011;17318;52.390;9.754;2023-05-10T05:44:37;11.75;;;5.90;;
30533;SDS011;17318;52.390;9.754;2023-05-10T05:47:03;11.65;;;6.03;;
30533;SDS011;17318;52.390;9.754;2023-05-10T05:49:29;13.13;;;6.00;;
30533;SDS011;17318;52.390;9.754;2023-05-10T05:51:58;17.20;;;8.40;;
30533;SDS011;17318;52.390;9.754;2023-05-10T05:54:27;16.75;;;8.65;;
30533;SDS011;17318;52.390;9.754;2023-05-10T05:56:53;9.45;;;6.07;;
30533;SDS011;17318;52.390;9.754;2023-05-10T05:59:20;11.00;;;5.72;;
30533;SDS011;17318;52.390;9.754;2023-05-10T06:01:46;10.82;;;6.63;;
30533;SDS011;17318;52.390;9.754;2023-05-10T06:04:12;8.05;;;5.03;;
30533;SDS011;17318;52.390;9.754;2023-05-10T06:06:38;9.55;;;5.43;;
30533;SDS011;17318;52.390;9.754;2023-05-10T06:09:03;12.40;;;5.28;;
30533;SDS011;17318;52.390;9.754;2023-05-10T06:11:29;8.73;;;5.15;;
30533;SDS011;17318;52.390;9.754;2023-05-10T06:13:57;7.82;;;5.20;;
30533;SDS011;17318;52.390;9.754;2023-05-10T06:16:23;9.10;;;4.45;;
30533;SDS011;17318;52.390;9.754;2023-05-10T06:18:49;10.07;;;4.40;;
30533;SDS011;17318;52.390;9.754;2023-05-10T06:21:14;7.32;;;4.90;;
30533;SDS011;17318;52.390;9.754;2023-05-10T06:23:41;8.55;;;4.65;;
30533;SDS011;17318;52.390;9.754;2023-05-10T06:26:06;5.43;;;4.13;;
30533;SDS011;17318;52.390;9.754;2023-05-10T06:28:32;13.52;;;5.53;;
30533;SDS011;17318;52.390;9.754;2023-05-10T06:30:58;8.77;;;5.15;;
30533;SDS011;17318;52.390;9.754;2023-05-10T06:33:24;13.20;;;5.47;;
30533;SDS011;17318;52.390;9.754;2023-05-10T06:35:50;11.35;;;5.35;;
30533;SDS011;17318;52.390;9.754;2023-05-10T06:38:17;8.65;;;5.30;;
30533;SDS011;17318;52.390;9.754;2023-05-10T06:40:42;9.40;;;5.03;;
30533;SDS011;17318;52.390;9.754;2023-05-10T06:43:09;11.80;;;5.65;;
30533;SDS011;17318;52.390;9.754;2023-05-10T06:45:35;9.13;;;5.13;;
30533;SDS011;17318;52.390;9.754;2023-05-10T06:48:00;12.55;;;5.20;;
30533;SDS011;17318;52.390;9.754;2023-05-10T06:50:26;11.73;;;6.63;;
30533;SDS011;17318;52.390;9.754;2023-05-10T06:52:52;12.98;;;8.02;;
30533;SDS011;17318;52.390;9.754;2023-05-10T06:55:18;11.00;;;6.70;;
30533;SDS011;17318;52.390;9.754;2023-05-10T06:57:44;10.07;;;5.20;;
30533;SDS011;17318;52.390;9.754;2023-05-10T07:00:09;6.70;;;5.05;;
30533;SDS011;17318;52.390;9.754;2023-05-10T07:02:35;10.93;;;6.07;;
30533;SDS011;17318;52.390;9.754;2023-05-10T07:05:01;8.63;;;5.50;;
30533;SDS011;17318;52.390;9.754;2023-05-10T07:07:27;14.05;;;7.35;;
30533;SDS011;17318;52.390;9.754;2023-05-10T07:13:15;7.13;;;5.40;;
30533;SDS011;17318;52.390;9.754;2023-05-10T07:15:41;9.60;;;5.65;;
30533;SDS011;17318;52.390;9.754;2023-05-10T07:18:07;14.73;;;9.32;;
30533;SDS011;17318;52.390;9.754;2023-05-10T07:20:32;10.85;;;7.13;;
30533;SDS011;17318;52.390;9.754;2023-05-10T07:22:58;12.93;;;6.00;;
30533;SDS011;17318;52.390;9.754;2023-05-10T07:25:24;9.15;;;5.40;;
30533;SDS011;17318;52.390;9.754;2023-05-10T07:27:49;9.50;;;5.30;;
30533;SDS011;17318;52.390;9.754;2023-05-10T07:30:15;10.63;;;5.43;;
30533;SDS011;17318;52.390;9.754;2023-05-10T07:32:41;12.15;;;7.95;;
30533;SDS011;17318;52.390;9.754;2023-05-10T07:35:07;9.48;;;4.93;;
30533;SDS011;17318;52.390;9.754;2023-05-10T07:37:34;10.32;;;5.88;;
30533;SDS011;17318;52.390;9.754;2023-05-10T07:40:00;7.20;;;5.10;;
30533;SDS011;17318;52.390;9.754;2023-05-10T07:42:26;9.85;;;4.97;;
30533;SDS011;17318;52.390;9.754;2023-05-10T07:44:52;11.57;;;6.28;;
30533;SDS011;17318;52.390;9.754;2023-05-10T07:47:18;11.77;;;7.10;;
30533;SDS011;17318;52.390;9.754;2023-05-10T07:49:44;6.40;;;4.85;;
30533;SDS011;17318;52.390;9.754;2023-05-10T07:52:11;5.95;;;4.20;;
30533;SDS011;17318;52.390;9.754;2023-05-10T07:54:36;10.68;;;5.55;;
30533;SDS011;17318;52.390;9.754;2023-05-10T07:57:02;10.02;;;5.03;;
30533;SDS011;17318;52.390;9.754;2023-05-10T07:59:28;7.45;;;4.97;;
30533;SDS011;17318;52.390;9.754;2023-05-10T08:01:54;7.07;;;4.45;;
30533;SDS011;17318;52.390;9.754;2023-05-10T08:04:21;8.10;;;4.72;;
30533;SDS011;17318;52.390;9.754;2023-05-10T08:06:47;9.18;;;4.07;;
30533;SDS011;17318;52.390;9.754;2023-05-10T08:09:12;7.28;;;4.68;;
30533;SDS011;17318;52.390;9.754;2023-05-10T08:11:38;9.02;;;4.68;;
30533;SDS011;17318;52.390;9.754;2023-05-10T08:14:04;5.93;;;3.83;;
30533;SDS011;17318;52.390;9.754;2023-05-10T08:16:29;9.18;;;3.83;;
30533;SDS011;17318;52.390;9.754;2023-05-10T08:18:55;6.00;;;3.33;;
30533;SDS011;17318;52.390;9.754;2023-05-10T08:21:21;27.13;;;3.97;;
30533;SDS011;17318;52.390;9.754;2023-05-10T08:23:46;5.88;;;3.33;;
30533;SDS011;17318;52.390;9.754;2023-05-10T08:26:12;5.35;;;3.03;;
30533;SDS011;17318;52.390;9.754;2023-05-10T08:28:38;6.95;;;1.95;;
30533;SDS011;17318;52.390;9.754;2023-05-10T08:31:04;3.50;;;2.55;;
30533;SDS011;17318;52.390;9.754;2023-05-10T08:33:30;2.58;;;2.10;;
30533;SDS011;17318;52.390;9.754;2023-05-10T08:35:56;2.75;;;1.90;;
30533;SDS011;17318;52.390;9.754;2023-05-10T08:38:21;3.83;;;1.85;;
30533;SDS011;17318;52.390;9.754;2023-05-10T08:40:47;2.25;;;1.63;;
30533;SDS011;17318;52.390;9.754;2023-05-10T08:43:16;5.72;;;2.47;;
30533;SDS011;17318;52.390;9.754;2023-05-10T08:45:42;2.90;;;1.67;;
30533;SDS011;17318;52.390;9.754;2023-05-10T08:48:11;2.50;;;1.75;;
30533;SDS011;17318;52.390;9.754;2023-05-10T08:50:38;4.53;;;1.65;;
30533;SDS011;17318;52.390;9.754;2023-05-10T08:53:11;2.38;;;1.98;;
30533;SDS011;17318;52.390;9.754;2023-05-10T08:55:38;6.32;;;2.15;;
30533;SDS011;17318;52.390;9.754;2023-05-10T08:58:06;3.03;;;2.20;;
30533;SDS011;17318;52.390;9.754;2023-05-10T09:00:32;4.18;;;2.47;;
30533;SDS011;17318;52.390;9.754;2023-05-10T09:02:58;2.78;;;2.03;;
30533;SDS011;17318;52.390;9.754;2023-05-10T09:05:25;3.40;;;2.13;;
30533;SDS011;17318;52.390;9.754;2023-05-10T09:07:51;2.22;;;1.90;;
30533;SDS011;17318;52.390;9.754;2023-05-10T09:10:17;2.42;;;1.80;;
30533;SDS011;17318;52.390;9.754;2023-05-10T09:12:43;1.73;;;1.58;;
30533;SDS011;17318;52.390;9.754;2023-05-10T09:15:10;3.67;;;1.90;;
30533;SDS011;17318;52.390;9.754;2023-05-10T09:17:38;2.95;;;1.70;;
30533;SDS011;17318;52.390;9.754;2023-05-10T09:22:31;2.83;;;2.17;;
30533;SDS011;17318;52.390;9.754;2023-05-10T09:25:30;3.15;;;2.40;;
30533;SDS011;17318;52.390;9.754;2023-05-10T09:27:49;4.30;;;2.40;;
30533;SDS011;17318;52.390;9.754;2023-05-10T09:30:16;3.05;;;2.30;;
30533;SDS011;17318;52.390;9.754;2023-05-10T09:32:52;5.10;;;3.53;;
30533;SDS011;17318;52.390;9.754;2023-05-10T09:35:19;10.63;;;7.25;;
30533;SDS011;17318;52.390;9.754;2023-05-10T09:37:49;4.50;;;3.10;;
30533;SDS011;17318;52.390;9.754;2023-05-10T09:40:19;3.83;;;2.78;;
30533;SDS011;17318;52.390;9.754;2023-05-10T09:42:56;3.42;;;2.38;;
30533;SDS011;17318;52.390;9.754;2023-05-10T09:45:27;9.88;;;3.45;;
30533;SDS011;17318;52.390;9.754;2023-05-10T09:47:57;4.28;;;3.03;;
30533;SDS011;17318;52.390;9.754;2023-05-10T09:50:24;5.10;;;3.08;;
30533;SDS011;17318;52.390;9.754;2023-05-10T09:52:59;3.97;;;2.60;;
30533;SDS011;17318;52.390;9.754;2023-05-10T10:00:38;5.95;;;2.60;;
30533;SDS011;17318;52.390;9.754;2023-05-10T10:03:05;4.10;;;2.67;;
30533;SDS011;17318;52.390;9.754;2023-05-10T10:05:32;3.08;;;2.20;;
30533;SDS011;17318;52.390;9.754;2023-05-10T10:07:59;3.85;;;2.60;;
30533;SDS011;17318;52.390;9.754;2023-05-10T10:10:26;5.28;;;3.00;;
30533;SDS011;17318;52.390;9.754;2023-05-10T10:12:53;3.80;;;2.20;;
30533;SDS011;17318;52.390;9.754;2023-05-10T10:15:22;6.57;;;4.28;;
30533;SDS011;17318;52.390;9.754;2023-05-10T10:17:49;2.78;;;2.30;;
30533;SDS011;17318;52.390;9.754;2023-05-10T10:20:15;6.22;;;2.55;;
30533;SDS011;17318;52.390;9.754;2023-05-10T10:22:42;5.43;;;3.20;;
30533;SDS011;17318;52.390;9.754;2023-05-10T10:25:11;4.13;;;3.00;;
30533;SDS011;17318;52.390;9.754;2023-05-10T10:36:02;4.22;;;2.85;;
30533;SDS011;17318;52.390;9.754;2023-05-10T10:49:43;3.05;;;2.47;;
30533;SDS011;17318;52.390;9.754;2023-05-10T10:52:17;4.10;;;2.92;;
30533;SDS011;17318;52.390;9.754;2023-05-10T10:54:58;3.90;;;2.72;;
30533;SDS011;17318;52.390;9.754;2023-05-10T10:57:31;5.53;;;2.70;;
30533;SDS011;17318;52.390;9.754;2023-05-10T11:00:24;3.97;;;2.60;;
30533;SDS011;17318;52.390;9.754;2023-05-10T11:05:46;3.80;;;2.42;;
30533;SDS011;17318;52.390;9.754;2023-05-10T11:13:34;4.30;;;3.20;;
30533;SDS011;17318;52.390;9.754;2023-05-10T11:16:13;5.43;;;3.60;;
30533;SDS011;17318;52.390;9.754;2023-05-10T11:18:39;4.90;;;2.92;;
30533;SDS011;17318;52.390;9.754;2023-05-10T11:21:05;5.43;;;3.17;;
30533;SDS011;17318;52.390;9.754;2023-05-10T11:26:13;3.13;;;2.50;;
30533;SDS011;17318;52.390;9.754;2023-05-10T11:28:45;6.95;;;3.30;;
30533;SDS011;17318;52.390;9.754;2023-05-10T11:31:18;5.45;;;3.05;;
30533;SDS011;17318;52.390;9.754;2023-05-10T11:33:51;4.25;;;2.50;;
30533;SDS011;17318;52.390;9.754;2023-05-10T11:36:24;5.75;;;2.58;;
30533;SDS011;17318;52.390;9.754;2023-05-10T11:38:56;7.95;;;3.33;;
30533;SDS011;17318;52.390;9.754;2023-05-10T11:41:22;5.60;;;3.55;;
30533;SDS011;17318;52.390;9.754;2023-05-10T11:43:50;11.90;;;4.20;;
30533;SDS011;17318;52.390;9.754;2023-05-10T11:46:18;5.35;;;3.15;;
30533;SDS011;17318;52.390;9.754;2023-05-10T11:48:45;9.63;;;4.43;;
30533;SDS011;17318;52.390;9.754;2023-05-10T11:51:14;5.78;;;3.60;;
30533;SDS011;17318;52.390;9.754;2023-05-10T11:53:40;6.05;;;3.60;;
30533;SDS011;17318;52.390;9.754;2023-05-10T11:56:06;4.18;;;2.75;;
30533;SDS011;17318;52.390;9.754;2023-05-10T11:58:33;3.95;;;2.63;;
30533;SDS011;17318;52.390;9.754;2023-05-10T12:01:00;5.20;;;3.03;;
30533;SDS011;17318;52.390;9.754;2023-05-10T12:03:27;6.15;;;3.47;;
30533;SDS011;17318;52.390;9.754;2023-05-10T12:05:57;6.63;;;3.25;;
30533;SDS011;17318;52.390;9.754;2023-05-10T12:08:24;4.88;;;3.17;;
30533;SDS011;17318;52.390;9.754;2023-05-10T12:10:51;8.73;;;3.72;;
30533;SDS011;17318;52.390;9.754;2023-05-10T12:13:18;4.72;;;3.25;;
30533;SDS011;17318;52.390;9.754;2023-05-10T12:15:45;7.40;;;3.38;;
30533;SDS011;17318;52.390;9.754;2023-05-10T12:18:11;5.55;;;3.50;;
30533;SDS011;17318;52.390;9.754;2023-05-10T12:20:38;9.27;;;4.18;;
30533;SDS011;17318;52.390;9.754;2023-05-10T12:23:05;4.78;;;3.35;;
30533;SDS011;17318;52.390;9.754;2023-05-10T12:25:33;6.50;;;3.53;;
30533;SDS011;17318;52.390;9.754;2023-05-10T12:28:02;5.22;;;4.03;;
30533;SDS011;17318;52.390;9.754;2023-05-10T12:30:33;5.60;;;3.70;;
30533;SDS011;17318;52.390;9.754;2023-05-10T12:33:00;7.35;;;3.75;;
30533;SDS011;17318;52.390;9.754;2023-05-10T12:35:31;7.07;;;4.00;;
30533;SDS011;17318;52.390;9.754;2023-05-10T12:37:57;8.95;;;4.20;;
30533;SDS011;17318;52.390;9.754;2023-05-10T12:40:23;6.43;;;3.40;;
30533;SDS011;17318;52.390;9.754;2023-05-10T12:42:49;5.47;;;3.95;;
30533;SDS011;17318;52.390;9.754;2023-05-10T12:45:16;6.65;;;3.10;;
30533;SDS011;17318;52.390;9.754;2023-05-10T12:47:43;7.90;;;3.80;;
30533;SDS011;17318;52.390;9.754;2023-05-10T12:50:08;5.13;;;3.53;;
30533;SDS011;17318;52.390;9.754;2023-05-10T12:52:34;7.22;;;3.75;;
30533;SDS011;17318;52.390;9.754;2023-05-10T12:55:00;7.40;;;3.90;;
30533;SDS011;17318;52.390;9.754;2023-05-10T12:57:26;6.75;;;3.45;;
30533;SDS011;17318;52.390;9.754;2023-05-10T12:59:52;7.97;;;4.15;;
30533;SDS011;17318;52.390;9.754;2023-05-10T13:02:21;6.68;;;3.75;;
30533;SDS011;17318;52.390;9.754;2023-05-10T13:04:48;9.88;;;3.70;;
30533;SDS011;17318;52.390;9.754;2023-05-10T13:07:14;5.65;;;3.40;;
30533;SDS011;17318;52.390;9.754;2023-05-10T13:09:40;6.50;;;4.25;;
30533;SDS011;17318;52.390;9.754;2023-05-10T13:12:05;5.82;;;3.70;;
30533;SDS011;17318;52.390;9.754;2023-05-10T13:14:31;5.30;;;3.78;;
30533;SDS011;17318;52.390;9.754;2023-05-10T13:16:57;9.20;;;3.78;;
30533;SDS011;17318;52.390;9.754;2023-05-10T13:19:22;6.10;;;4.38;;
30533;SDS011;17318;52.390;9.754;2023-05-10T13:21:50;7.78;;;3.70;;
30533;SDS011;17318;52.390;9.754;2023-05-10T13:24:16;6.88;;;3.60;;
30533;SDS011;17318;52.390;9.754;2023-05-10T13:26:42;7.22;;;4.45;;
30533;SDS011;17318;52.390;9.754;2023-05-10T13:29:08;12.40;;;6.43;;
30533;SDS011;17318;52.390;9.754;2023-05-10T13:31:34;36.80;;;21.02;;
30533;SDS011;17318;52.390;9.754;2023-05-10T13:34:01;24.90;;;15.02;;
30533;SDS011;17318;52.390;9.754;2023-05-10T13:36:27;14.80;;;7.97;;
30533;SDS011;17318;52.390;9.754;2023-05-10T13:38:53;8.77;;;4.57;;
30533;SDS011;17318;52.390;9.754;2023-05-10T13:41:19;6.68;;;4.20;;
30533;SDS011;17318;52.390;9.754;2023-05-10T13:43:44;9.05;;;3.78;;
30533;SDS011;17318;52.390;9.754;2023-05-10T13:46:10;4.65;;;3.17;;
30533;SDS011;17318;52.390;9.754;2023-05-10T13:48:36;7.65;;;5.60;;
30533;SDS011;17318;52.390;9.754;2023-05-10T13:51:02;6.63;;;4.28;;
30533;SDS011;17318;52.390;9.754;2023-05-10T13:53:28;7.60;;;3.70;;
30533;SDS011;17318;52.390;9.754;2023-05-10T13:55:54;7.95;;;3.70;;
30533;SDS011;17318;52.390;9.754;2023-05-10T13:58:20;6.88;;;4.45;;
30533;SDS011;17318;52.390;9.754;2023-05-10T14:00:45;11.55;;;4.85;;
30533;SDS011;17318;52.390;9.754;2023-05-10T14:03:11;11.77;;;5.55;;
30533;SDS011;17318;52.390;9.754;2023-05-10T14:05:37;8.88;;;6.00;;
30533;SDS011;17318;52.390;9.754;2023-05-10T14:08:03;11.20;;;5.85;;
30533;SDS011;17318;52.390;9.754;2023-05-10T14:10:29;11.27;;;6.40;;
30533;SDS011;17318;52.390;9.754;2023-05-10T14:12:55;12.52;;;6.22;;
30533;SDS011;17318;52.390;9.754;2023-05-10T14:15:21;10.60;;;6.10;;
30533;SDS011;17318;52.390;9.754;2023-05-10T14:17:47;13.82;;;7.20;;
30533;SDS011;17318;52.390;9.754;2023-05-10T14:20:12;11.27;;;7.50;;
30533;SDS011;17318;52.390;9.754;2023-05-10T14:22:38;12.70;;;7.72;;
30533;SDS011;17318;52.390;9.754;2023-05-10T14:25:05;17.33;;;7.57;;
30533;SDS011;17318;52.390;9.754;2023-05-10T14:27:31;14.77;;;8.10;;
30533;SDS011;17318;52.390;9.754;2023-05-10T14:29:57;11.85;;;7.53;;
30533;SDS011;17318;52.390;9.754;2023-05-10T14:32:23;12.98;;;7.90;;
30533;SDS011;17318;52.390;9.754;2023-05-10T14:34:48;15.20;;;7.28;;
30533;SDS011;17318;52.390;9.754;2023-05-10T14:37:14;20.17;;;8.00;;
30533;SDS011;17318;52.390;9.754;2023-05-10T14:39:41;14.55;;;7.63;;
30533;SDS011;17318;52.390;9.754;2023-05-10T14:42:07;17.90;;;8.93;;
30533;SDS011;17318;52.390;9.754;2023-05-10T14:44:33;18.25;;;9.02;;
30533;SDS011;17318;52.390;9.754;2023-05-10T14:46:59;15.40;;;8.40;;
30533;SDS011;17318;52.390;9.754;2023-05-10T14:49:25;18.25;;;8.85;;
30533;SDS011;17318;52.390;9.754;2023-05-10T14:51:51;17.38;;;9.20;;
30533;SDS011;17318;52.390;9.754;2023-05-10T14:54:17;15.35;;;9.15;;
30533;SDS011;17318;52.390;9.754;2023-05-10T14:56:42;17.35;;;9.77;;
30533;SDS011;17318;52.390;9.754;2023-05-10T14:59:08;14.40;;;9.05;;
30533;SDS011;17318;52.390;9.754;2023-05-10T15:01:34;17.33;;;8.70;;
30533;SDS011;17318;52.390;9.754;2023-05-10T15:04:02;21.08;;;9.88;;
30533;SDS011;17318;52.390;9.754;2023-05-10T15:06:32;14.75;;;9.05;;
30533;SDS011;17318;52.390;9.754;2023-05-10T15:08:59;14.98;;;9.55;;
30533;SDS011;17318;52.390;9.754;2023-05-10T15:11:26;20.23;;;10.00;;
30533;SDS011;17318;52.390;9.754;2023-05-10T15:13:52;15.55;;;9.77;;
30533;SDS011;17318;52.390;9.754;2023-05-10T15:16:18;20.08;;;10.68;;
30533;SDS011;17318;52.390;9.754;2023-05-10T15:18:44;19.25;;;9.73;;
30533;SDS011;17318;52.390;9.754;2023-05-10T15:21:10;18.25;;;10.25;;
30533;SDS011;17318;52.390;9.754;2023-05-10T15:23:36;19.88;;;9.95;;
30533;SDS011;17318;52.390;9.754;2023-05-10T15:26:02;16.48;;;10.05;;
30533;SDS011;17318;52.390;9.754;2023-05-10T15:28:28;15.85;;;9.88;;
30533;SDS011;17318;52.390;9.754;2023-05-10T15:30:54;15.77;;;9.73;;
30533;SDS011;17318;52.390;9.754;2023-05-10T15:33:21;17.83;;;9.75;;
30533;SDS011;17318;52.390;9.754;2023-05-10T15:35:47;17.63;;;9.70;;
30533;SDS011;17318;52.390;9.754;2023-05-10T15:38:12;20.48;;;9.38;;
30533;SDS011;17318;52.390;9.754;2023-05-10T15:40:38;16.70;;;10.02;;
30533;SDS011;17318;52.390;9.754;2023-05-10T15:43:04;18.25;;;9.88;;
30533;SDS011;17318;52.390;9.754;2023-05-10T15:45:30;16.25;;;9.40;;
30533;SDS011;17318;52.390;9.754;2023-05-10T15:47:56;18.10;;;9.27;;